sensor_id;sensor_type;location;lat;lon;timestamp;P1;durP1;ratioP1;P2;durP2;ratioP2
70213;SDS011;60138;55.808;37.078;2023-11-21T00:00:26;8.43;;;6.80;;
70213;SDS011;60138;55.808;37.078;2023-11-21T00:02:51;9.57;;;7.23;;
70213;SDS011;60138;55.808;37.078;2023-11-21T00:05:17;7.97;;;5.78;;
70213;SDS011;60138;55.808;37.078;2023-11-21T00:07:43;10.00;;;7.57;;
70213;SDS011;60138;55.808;37.078;2023-11-21T00:10:09;8.30;;;5.25;;
70213;SDS011;60138;55.808;37.078;2023-11-21T00:12:37;11.63;;;5.50;;
70213;SDS011;60138;55.808;37.078;2023-11-21T00:15:03;8.43;;;5.30;;
70213;SDS011;60138;55.808;37.078;2023-11-21T00:17:31;9.60;;;7.15;;
70213;SDS011;60138;55.808;37.078;2023-11-21T00:19:57;10.27;;;6.80;;
70213;SDS011;60138;55.808;37.078;2023-11-21T00:22:22;9.85;;;6.43;;
70213;SDS011;60138;55.808;37.078;2023-11-21T00:24:48;9.03;;;5.97;;
70213;SDS011;60138;55.808;37.078;2023-11-21T00:27:14;7.05;;;5.25;;
70213;SDS011;60138;55.808;37.078;2023-11-21T00:29:40;11.67;;;7.20;;
70213;SDS011;60138;55.808;37.078;2023-11-21T00:32:06;9.93;;;6.30;;
70213;SDS011;60138;55.808;37.078;2023-11-21T00:34:32;8.23;;;7.28;;
70213;SDS011;60138;55.808;37.078;2023-11-21T00:36:58;8.63;;;6.72;;
70213;SDS011;60138;55.808;37.078;2023-11-21T00:39:24;8.23;;;5.93;;
70213;SDS011;60138;55.808;37.078;2023-11-21T00:41:50;6.87;;;5.53;;
70213;SDS011;60138;55.808;37.078;2023-11-21T00:44:17;9.05;;;5.88;;
70213;SDS011;60138;55.808;37.078;2023-11-21T00:46:43;9.77;;;6.32;;
70213;SDS011;60138;55.808;37.078;2023-11-21T00:49:09;8.33;;;6.40;;
70213;SDS011;60138;55.808;37.078;2023-11-21T00:51:34;7.37;;;6.10;;
70213;SDS011;60138;55.808;37.078;2023-11-21T00:54:00;8.15;;;5.75;;
70213;SDS011;60138;55.808;37.078;2023-11-21T00:56:26;10.27;;;6.97;;
70213;SDS011;60138;55.808;37.078;2023-11-21T00:58:52;11.25;;;7.50;;
70213;SDS011;60138;55.808;37.078;2023-11-21T01:01:19;8.38;;;5.47;;
70213;SDS011;60138;55.808;37.078;2023-11-21T01:03:48;7.53;;;5.77;;
70213;SDS011;60138;55.808;37.078;2023-11-21T01:06:14;10.65;;;6.25;;
70213;SDS011;60138;55.808;37.078;2023-11-21T01:08:41;9.27;;;5.95;;
70213;SDS011;60138;55.808;37.078;2023-11-21T01:11:08;7.83;;;5.93;;
70213;SDS011;60138;55.808;37.078;2023-11-21T01:13:34;8.25;;;6.03;;
70213;SDS011;60138;55.808;37.078;2023-11-21T01:16:00;7.30;;;5.50;;
70213;SDS011;60138;55.808;37.078;2023-11-21T01:18:26;7.05;;;5.82;;
70213;SDS011;60138;55.808;37.078;2023-11-21T01:20:51;11.20;;;6.17;;
70213;SDS011;60138;55.808;37.078;2023-11-21T01:23:17;9.32;;;6.18;;
70213;SDS011;60138;55.808;37.078;2023-11-21T01:25:43;11.10;;;6.17;;
70213;SDS011;60138;55.808;37.078;2023-11-21T01:28:09;7.60;;;5.70;;
70213;SDS011;60138;55.808;37.078;2023-11-21T01:30:35;11.93;;;6.93;;
70213;SDS011;60138;55.808;37.078;2023-11-21T01:33:00;5.82;;;5.25;;
70213;SDS011;60138;55.808;37.078;2023-11-21T01:35:26;7.93;;;6.17;;
70213;SDS011;60138;55.808;37.078;2023-11-21T01:37:52;7.88;;;5.82;;
70213;SDS011;60138;55.808;37.078;2023-11-21T01:40:18;6.67;;;5.23;;
70213;SDS011;60138;55.808;37.078;2023-11-21T01:42:44;8.07;;;6.32;;
70213;SDS011;60138;55.808;37.078;2023-11-21T01:45:10;7.33;;;6.00;;
70213;SDS011;60138;55.808;37.078;2023-11-21T01:47:36;9.73;;;6.18;;
70213;SDS011;60138;55.808;37.078;2023-11-21T01:50:03;8.13;;;6.10;;
70213;SDS011;60138;55.808;37.078;2023-11-21T01:52:29;9.23;;;7.65;;
70213;SDS011;60138;55.808;37.078;2023-11-21T01:54:56;8.65;;;5.80;;
70213;SDS011;60138;55.808;37.078;2023-11-21T01:57:23;7.72;;;5.75;;
70213;SDS011;60138;55.808;37.078;2023-11-21T01:59:49;10.23;;;6.53;;
70213;SDS011;60138;55.808;37.078;2023-11-21T02:02:18;7.43;;;5.57;;
70213;SDS011;60138;55.808;37.078;2023-11-21T02:04:44;5.50;;;4.95;;
70213;SDS011;60138;55.808;37.078;2023-11-21T02:07:10;11.93;;;7.33;;
70213;SDS011;60138;55.808;37.078;2023-11-21T02:09:36;8.05;;;5.65;;
70213;SDS011;60138;55.808;37.078;2023-11-21T02:12:02;6.50;;;4.73;;
70213;SDS011;60138;55.808;37.078;2023-11-21T02:14:28;8.43;;;5.38;;
70213;SDS011;60138;55.808;37.078;2023-11-21T02:16:55;8.60;;;6.13;;
70213;SDS011;60138;55.808;37.078;2023-11-21T02:19:21;8.13;;;5.27;;
70213;SDS011;60138;55.808;37.078;2023-11-21T02:21:47;13.80;;;6.07;;
70213;SDS011;60138;55.808;37.078;2023-11-21T02:24:15;9.60;;;6.03;;
70213;SDS011;60138;55.808;37.078;2023-11-21T02:26:42;8.33;;;5.70;;
70213;SDS011;60138;55.808;37.078;2023-11-21T02:29:08;7.45;;;5.63;;
70213;SDS011;60138;55.808;37.078;2023-11-21T02:31:33;8.63;;;6.07;;
70213;SDS011;60138;55.808;37.078;2023-11-21T02:34:00;9.98;;;5.88;;
70213;SDS011;60138;55.808;37.078;2023-11-21T02:36:26;8.23;;;6.15;;
70213;SDS011;60138;55.808;37.078;2023-11-21T02:38:52;10.63;;;5.77;;
70213;SDS011;60138;55.808;37.078;2023-11-21T02:41:17;9.65;;;5.70;;
70213;SDS011;60138;55.808;37.078;2023-11-21T02:43:43;8.90;;;6.05;;
70213;SDS011;60138;55.808;37.078;2023-11-21T02:46:09;9.13;;;6.20;;
70213;SDS011;60138;55.808;37.078;2023-11-21T02:48:35;9.38;;;7.03;;
70213;SDS011;60138;55.808;37.078;2023-11-21T02:51:00;18.40;;;11.07;;
70213;SDS011;60138;55.808;37.078;2023-11-21T02:53:26;17.00;;;8.95;;
70213;SDS011;60138;55.808;37.078;2023-11-21T02:55:52;15.13;;;8.20;;
70213;SDS011;60138;55.808;37.078;2023-11-21T02:58:18;11.88;;;8.75;;
70213;SDS011;60138;55.808;37.078;2023-11-21T03:00:44;12.27;;;7.85;;
70213;SDS011;60138;55.808;37.078;2023-11-21T03:03:10;9.38;;;6.20;;
70213;SDS011;60138;55.808;37.078;2023-11-21T03:05:35;9.33;;;5.90;;
70213;SDS011;60138;55.808;37.078;2023-11-21T03:08:01;6.30;;;5.00;;
70213;SDS011;60138;55.808;37.078;2023-11-21T03:10:27;8.90;;;6.70;;
70213;SDS011;60138;55.808;37.078;2023-11-21T03:12:53;10.27;;;6.90;;
70213;SDS011;60138;55.808;37.078;2023-11-21T03:15:18;11.10;;;6.63;;
70213;SDS011;60138;55.808;37.078;2023-11-21T03:17:44;8.68;;;6.15;;
70213;SDS011;60138;55.808;37.078;2023-11-21T03:20:10;7.73;;;5.80;;
70213;SDS011;60138;55.808;37.078;2023-11-21T03:22:36;12.25;;;8.18;;
70213;SDS011;60138;55.808;37.078;2023-11-21T03:25:02;10.55;;;7.55;;
70213;SDS011;60138;55.808;37.078;2023-11-21T03:27:30;12.70;;;7.80;;
70213;SDS011;60138;55.808;37.078;2023-11-21T03:29:55;15.23;;;7.10;;
70213;SDS011;60138;55.808;37.078;2023-11-21T03:32:21;9.37;;;8.20;;
70213;SDS011;60138;55.808;37.078;2023-11-21T03:34:56;11.13;;;7.65;;
70213;SDS011;60138;55.808;37.078;2023-11-21T03:37:23;10.98;;;7.07;;
70213;SDS011;60138;55.808;37.078;2023-11-21T03:39:49;11.18;;;7.78;;
70213;SDS011;60138;55.808;37.078;2023-11-21T03:42:15;9.43;;;6.53;;
70213;SDS011;60138;55.808;37.078;2023-11-21T03:44:41;12.83;;;7.97;;
70213;SDS011;60138;55.808;37.078;2023-11-21T03:47:07;10.15;;;6.60;;
70213;SDS011;60138;55.808;37.078;2023-11-21T03:49:33;8.60;;;7.03;;
70213;SDS011;60138;55.808;37.078;2023-11-21T03:51:59;7.80;;;6.50;;
70213;SDS011;60138;55.808;37.078;2023-11-21T03:54:24;9.73;;;6.93;;
70213;SDS011;60138;55.808;37.078;2023-11-21T03:56:50;9.52;;;7.07;;
70213;SDS011;60138;55.808;37.078;2023-11-21T03:59:16;9.27;;;6.03;;
70213;SDS011;60138;55.808;37.078;2023-11-21T04:01:41;7.47;;;5.85;;
70213;SDS011;60138;55.808;37.078;2023-11-21T04:04:07;7.30;;;4.93;;
70213;SDS011;60138;55.808;37.078;2023-11-21T04:06:33;6.67;;;5.13;;
70213;SDS011;60138;55.808;37.078;2023-11-21T04:08:58;10.05;;;6.43;;
70213;SDS011;60138;55.808;37.078;2023-11-21T04:11:24;11.77;;;7.53;;
70213;SDS011;60138;55.808;37.078;2023-11-21T04:13:50;11.82;;;6.50;;
70213;SDS011;60138;55.808;37.078;2023-11-21T04:16:16;8.60;;;6.37;;
70213;SDS011;60138;55.808;37.078;2023-11-21T04:18:41;6.65;;;5.13;;
70213;SDS011;60138;55.808;37.078;2023-11-21T04:21:07;10.47;;;7.87;;
70213;SDS011;60138;55.808;37.078;2023-11-21T04:23:33;10.55;;;7.13;;
70213;SDS011;60138;55.808;37.078;2023-11-21T04:26:00;8.80;;;5.80;;
70213;SDS011;60138;55.808;37.078;2023-11-21T04:28:26;8.90;;;5.83;;
70213;SDS011;60138;55.808;37.078;2023-11-21T04:30:52;10.60;;;7.50;;
70213;SDS011;60138;55.808;37.078;2023-11-21T04:33:17;11.57;;;8.13;;
70213;SDS011;60138;55.808;37.078;2023-11-21T04:35:43;8.60;;;6.80;;
70213;SDS011;60138;55.808;37.078;2023-11-21T04:38:09;12.60;;;7.90;;
70213;SDS011;60138;55.808;37.078;2023-11-21T04:40:34;10.38;;;7.60;;
70213;SDS011;60138;55.808;37.078;2023-11-21T04:43:00;9.18;;;6.82;;
70213;SDS011;60138;55.808;37.078;2023-11-21T04:45:26;11.67;;;8.10;;
70213;SDS011;60138;55.808;37.078;2023-11-21T04:47:51;14.23;;;6.78;;
70213;SDS011;60138;55.808;37.078;2023-11-21T04:50:17;10.87;;;6.73;;
70213;SDS011;60138;55.808;37.078;2023-11-21T04:52:43;10.40;;;7.28;;
70213;SDS011;60138;55.808;37.078;2023-11-21T04:55:09;11.37;;;8.13;;
70213;SDS011;60138;55.808;37.078;2023-11-21T04:57:35;9.27;;;6.25;;
70213;SDS011;60138;55.808;37.078;2023-11-21T05:00:01;10.50;;;6.43;;
70213;SDS011;60138;55.808;37.078;2023-11-21T05:02:30;25.40;;;10.25;;
70213;SDS011;60138;55.808;37.078;2023-11-21T05:04:56;26.90;;;13.80;;
70213;SDS011;60138;55.808;37.078;2023-11-21T05:07:21;15.35;;;9.05;;
70213;SDS011;60138;55.808;37.078;2023-11-21T05:09:47;16.53;;;8.50;;
70213;SDS011;60138;55.808;37.078;2023-11-21T05:12:13;16.08;;;7.28;;
70213;SDS011;60138;55.808;37.078;2023-11-21T05:14:39;10.32;;;8.30;;
70213;SDS011;60138;55.808;37.078;2023-11-21T05:17:04;14.30;;;7.57;;
70213;SDS011;60138;55.808;37.078;2023-11-21T05:19:30;10.67;;;6.70;;
70213;SDS011;60138;55.808;37.078;2023-11-21T05:21:56;10.25;;;6.95;;
70213;SDS011;60138;55.808;37.078;2023-11-21T05:24:21;14.93;;;9.00;;
70213;SDS011;60138;55.808;37.078;2023-11-21T05:26:47;18.03;;;9.57;;
70213;SDS011;60138;55.808;37.078;2023-11-21T05:29:13;22.80;;;11.73;;
70213;SDS011;60138;55.808;37.078;2023-11-21T05:31:38;24.60;;;12.10;;
70213;SDS011;60138;55.808;37.078;2023-11-21T05:34:04;20.92;;;12.20;;
70213;SDS011;60138;55.808;37.078;2023-11-21T05:36:30;16.83;;;11.00;;
70213;SDS011;60138;55.808;37.078;2023-11-21T05:38:56;17.33;;;10.82;;
70213;SDS011;60138;55.808;37.078;2023-11-21T05:41:22;27.83;;;15.90;;
70213;SDS011;60138;55.808;37.078;2023-11-21T05:43:47;28.83;;;16.73;;
70213;SDS011;60138;55.808;37.078;2023-11-21T05:46:13;24.40;;;11.03;;
70213;SDS011;60138;55.808;37.078;2023-11-21T05:48:39;26.27;;;12.30;;
70213;SDS011;60138;55.808;37.078;2023-11-21T05:51:05;34.97;;;15.23;;
70213;SDS011;60138;55.808;37.078;2023-11-21T05:53:31;22.33;;;10.57;;
70213;SDS011;60138;55.808;37.078;2023-11-21T05:55:58;24.55;;;11.70;;
70213;SDS011;60138;55.808;37.078;2023-11-21T05:58:24;12.17;;;7.60;;
70213;SDS011;60138;55.808;37.078;2023-11-21T06:00:50;27.30;;;11.53;;
70213;SDS011;60138;55.808;37.078;2023-11-21T06:03:15;15.18;;;9.15;;
70213;SDS011;60138;55.808;37.078;2023-11-21T06:05:41;12.00;;;6.57;;
70213;SDS011;60138;55.808;37.078;2023-11-21T06:08:07;15.65;;;7.85;;
70213;SDS011;60138;55.808;37.078;2023-11-21T06:10:33;16.60;;;9.80;;
70213;SDS011;60138;55.808;37.078;2023-11-21T06:12:59;27.13;;;12.82;;
70213;SDS011;60138;55.808;37.078;2023-11-21T06:15:24;12.57;;;7.50;;
70213;SDS011;60138;55.808;37.078;2023-11-21T06:17:50;16.10;;;9.45;;
70213;SDS011;60138;55.808;37.078;2023-11-21T06:20:16;14.50;;;9.25;;
70213;SDS011;60138;55.808;37.078;2023-11-21T06:22:42;11.77;;;7.87;;
70213;SDS011;60138;55.808;37.078;2023-11-21T06:25:08;13.77;;;8.05;;
70213;SDS011;60138;55.808;37.078;2023-11-21T06:27:37;11.70;;;7.18;;
70213;SDS011;60138;55.808;37.078;2023-11-21T06:30:04;10.90;;;8.05;;
70213;SDS011;60138;55.808;37.078;2023-11-21T06:32:31;10.05;;;7.65;;
70213;SDS011;60138;55.808;37.078;2023-11-21T06:34:57;15.87;;;8.77;;
70213;SDS011;60138;55.808;37.078;2023-11-21T06:37:22;10.35;;;7.15;;
70213;SDS011;60138;55.808;37.078;2023-11-21T06:39:48;14.30;;;10.30;;
70213;SDS011;60138;55.808;37.078;2023-11-21T06:42:14;11.88;;;7.35;;
70213;SDS011;60138;55.808;37.078;2023-11-21T06:44:40;18.53;;;10.07;;
70213;SDS011;60138;55.808;37.078;2023-11-21T06:47:06;17.50;;;8.15;;
70213;SDS011;60138;55.808;37.078;2023-11-21T06:49:32;10.20;;;8.50;;
70213;SDS011;60138;55.808;37.078;2023-11-21T06:51:58;13.63;;;9.00;;
70213;SDS011;60138;55.808;37.078;2023-11-21T06:54:24;14.43;;;9.80;;
70213;SDS011;60138;55.808;37.078;2023-11-21T06:56:50;14.55;;;10.10;;
70213;SDS011;60138;55.808;37.078;2023-11-21T06:59:15;13.03;;;9.13;;
70213;SDS011;60138;55.808;37.078;2023-11-21T07:01:41;15.50;;;10.52;;
70213;SDS011;60138;55.808;37.078;2023-11-21T07:04:07;10.38;;;7.50;;
70213;SDS011;60138;55.808;37.078;2023-11-21T07:06:33;15.27;;;8.30;;
70213;SDS011;60138;55.808;37.078;2023-11-21T07:08:58;15.68;;;9.32;;
70213;SDS011;60138;55.808;37.078;2023-11-21T07:11:24;15.82;;;9.80;;
70213;SDS011;60138;55.808;37.078;2023-11-21T07:13:50;9.40;;;7.60;;
70213;SDS011;60138;55.808;37.078;2023-11-21T07:16:16;10.98;;;7.32;;
70213;SDS011;60138;55.808;37.078;2023-11-21T07:18:41;10.50;;;7.53;;
70213;SDS011;60138;55.808;37.078;2023-11-21T07:21:07;6.28;;;5.38;;
70213;SDS011;60138;55.808;37.078;2023-11-21T07:23:33;9.93;;;6.87;;
70213;SDS011;60138;55.808;37.078;2023-11-21T07:25:59;16.95;;;9.50;;
70213;SDS011;60138;55.808;37.078;2023-11-21T07:28:24;15.43;;;10.03;;
70213;SDS011;60138;55.808;37.078;2023-11-21T07:30:50;9.80;;;6.88;;
70213;SDS011;60138;55.808;37.078;2023-11-21T07:33:16;9.93;;;7.63;;
70213;SDS011;60138;55.808;37.078;2023-11-21T07:35:42;14.20;;;10.30;;
70213;SDS011;60138;55.808;37.078;2023-11-21T07:38:07;7.93;;;6.27;;
70213;SDS011;60138;55.808;37.078;2023-11-21T07:40:33;9.48;;;6.28;;
70213;SDS011;60138;55.808;37.078;2023-11-21T07:42:59;10.52;;;7.30;;
70213;SDS011;60138;55.808;37.078;2023-11-21T07:45:27;8.27;;;7.03;;
70213;SDS011;60138;55.808;37.078;2023-11-21T07:47:53;8.10;;;6.45;;
70213;SDS011;60138;55.808;37.078;2023-11-21T07:50:19;9.67;;;7.53;;
70213;SDS011;60138;55.808;37.078;2023-11-21T07:52:45;9.15;;;6.70;;
70213;SDS011;60138;55.808;37.078;2023-11-21T07:55:11;10.98;;;7.18;;
70213;SDS011;60138;55.808;37.078;2023-11-21T07:57:37;11.77;;;7.77;;
70213;SDS011;60138;55.808;37.078;2023-11-21T08:00:04;13.18;;;6.82;;
70213;SDS011;60138;55.808;37.078;2023-11-21T08:02:40;9.13;;;7.07;;
70213;SDS011;60138;55.808;37.078;2023-11-21T08:05:07;8.20;;;6.57;;
70213;SDS011;60138;55.808;37.078;2023-11-21T08:07:33;11.18;;;7.38;;
70213;SDS011;60138;55.808;37.078;2023-11-21T08:09:59;12.23;;;7.23;;
70213;SDS011;60138;55.808;37.078;2023-11-21T08:12:24;10.05;;;8.20;;
70213;SDS011;60138;55.808;37.078;2023-11-21T08:14:50;9.57;;;7.50;;
70213;SDS011;60138;55.808;37.078;2023-11-21T08:17:16;10.65;;;6.82;;
70213;SDS011;60138;55.808;37.078;2023-11-21T08:19:42;14.07;;;7.95;;
70213;SDS011;60138;55.808;37.078;2023-11-21T08:22:07;11.73;;;8.00;;
70213;SDS011;60138;55.808;37.078;2023-11-21T08:24:33;5.75;;;4.50;;
70213;SDS011;60138;55.808;37.078;2023-11-21T08:26:59;8.05;;;5.97;;
70213;SDS011;60138;55.808;37.078;2023-11-21T08:29:25;9.27;;;6.80;;
70213;SDS011;60138;55.808;37.078;2023-11-21T08:31:50;8.20;;;6.55;;
70213;SDS011;60138;55.808;37.078;2023-11-21T08:34:16;9.83;;;6.20;;
70213;SDS011;60138;55.808;37.078;2023-11-21T08:36:42;5.95;;;5.22;;
70213;SDS011;60138;55.808;37.078;2023-11-21T08:39:08;8.13;;;6.80;;
70213;SDS011;60138;55.808;37.078;2023-11-21T08:41:34;9.98;;;6.03;;
70213;SDS011;60138;55.808;37.078;2023-11-21T08:44:00;8.43;;;6.57;;
70213;SDS011;60138;55.808;37.078;2023-11-21T08:46:25;7.75;;;5.93;;
70213;SDS011;60138;55.808;37.078;2023-11-21T08:48:51;10.57;;;6.63;;
70213;SDS011;60138;55.808;37.078;2023-11-21T08:51:17;7.20;;;5.25;;
70213;SDS011;60138;55.808;37.078;2023-11-21T08:53:43;6.83;;;5.73;;
70213;SDS011;60138;55.808;37.078;2023-11-21T08:56:12;7.78;;;6.00;;
70213;SDS011;60138;55.808;37.078;2023-11-21T08:58:38;7.73;;;6.70;;
70213;SDS011;60138;55.808;37.078;2023-11-21T09:01:04;6.53;;;5.80;;
70213;SDS011;60138;55.808;37.078;2023-11-21T09:03:30;6.57;;;5.60;;
70213;SDS011;60138;55.808;37.078;2023-11-21T09:05:56;16.10;;;6.30;;
70213;SDS011;60138;55.808;37.078;2023-11-21T09:08:22;10.43;;;6.60;;
70213;SDS011;60138;55.808;37.078;2023-11-21T09:10:49;8.90;;;6.20;;
70213;SDS011;60138;55.808;37.078;2023-11-21T09:13:15;7.90;;;6.28;;
70213;SDS011;60138;55.808;37.078;2023-11-21T09:15:40;7.43;;;5.20;;
70213;SDS011;60138;55.808;37.078;2023-11-21T09:18:06;9.98;;;7.22;;
70213;SDS011;60138;55.808;37.078;2023-11-21T09:20:32;12.33;;;7.17;;
70213;SDS011;60138;55.808;37.078;2023-11-21T09:22:58;6.10;;;5.50;;
70213;SDS011;60138;55.808;37.078;2023-11-21T09:25:23;6.37;;;5.40;;
70213;SDS011;60138;55.808;37.078;2023-11-21T09:27:49;12.77;;;6.28;;
70213;SDS011;60138;55.808;37.078;2023-11-21T09:30:15;7.90;;;5.50;;
70213;SDS011;60138;55.808;37.078;2023-11-21T09:32:41;6.88;;;4.55;;
70213;SDS011;60138;55.808;37.078;2023-11-21T09:35:06;6.55;;;5.85;;
70213;SDS011;60138;55.808;37.078;2023-11-21T09:37:32;8.15;;;6.05;;
70213;SDS011;60138;55.808;37.078;2023-11-21T09:39:58;7.00;;;5.50;;
70213;SDS011;60138;55.808;37.078;2023-11-21T09:42:32;7.80;;;5.95;;
70213;SDS011;60138;55.808;37.078;2023-11-21T09:45:14;5.70;;;4.90;;
70213;SDS011;60138;55.808;37.078;2023-11-21T09:47:44;5.82;;;5.22;;
70213;SDS011;60138;55.808;37.078;2023-11-21T09:50:10;6.88;;;4.70;;
70213;SDS011;60138;55.808;37.078;2023-11-21T09:55:29;10.25;;;5.80;;
70213;SDS011;60138;55.808;37.078;2023-11-21T09:57:56;8.40;;;5.65;;
70213;SDS011;60138;55.808;37.078;2023-11-21T10:00:22;8.40;;;6.00;;
70213;SDS011;60138;55.808;37.078;2023-11-21T10:02:48;10.13;;;7.07;;
70213;SDS011;60138;55.808;37.078;2023-11-21T10:05:14;14.10;;;7.40;;
70213;SDS011;60138;55.808;37.078;2023-11-21T10:07:40;9.70;;;5.37;;
70213;SDS011;60138;55.808;37.078;2023-11-21T10:10:07;5.93;;;5.32;;
70213;SDS011;60138;55.808;37.078;2023-11-21T10:12:33;10.68;;;4.70;;
70213;SDS011;60138;55.808;37.078;2023-11-21T10:15:00;7.33;;;5.30;;
70213;SDS011;60138;55.808;37.078;2023-11-21T10:17:30;4.82;;;4.15;;
70213;SDS011;60138;55.808;37.078;2023-11-21T10:20:00;8.15;;;6.35;;
70213;SDS011;60138;55.808;37.078;2023-11-21T10:22:27;9.00;;;6.28;;
70213;SDS011;60138;55.808;37.078;2023-11-21T10:24:53;5.65;;;4.10;;
70213;SDS011;60138;55.808;37.078;2023-11-21T10:27:19;8.55;;;4.57;;
70213;SDS011;60138;55.808;37.078;2023-11-21T10:29:45;17.40;;;6.83;;
70213;SDS011;60138;55.808;37.078;2023-11-21T10:32:11;8.23;;;6.77;;
70213;SDS011;60138;55.808;37.078;2023-11-21T10:34:38;13.18;;;6.47;;
70213;SDS011;60138;55.808;37.078;2023-11-21T10:37:13;6.05;;;5.40;;
70213;SDS011;60138;55.808;37.078;2023-11-21T10:39:39;5.60;;;5.10;;
70213;SDS011;60138;55.808;37.078;2023-11-21T10:42:07;5.63;;;4.78;;
70213;SDS011;60138;55.808;37.078;2023-11-21T10:44:33;6.88;;;5.93;;
70213;SDS011;60138;55.808;37.078;2023-11-21T10:46:59;7.83;;;4.97;;
70213;SDS011;60138;55.808;37.078;2023-11-21T10:49:26;12.07;;;5.60;;
70213;SDS011;60138;55.808;37.078;2023-11-21T10:51:55;8.55;;;5.68;;
70213;SDS011;60138;55.808;37.078;2023-11-21T10:54:24;8.07;;;6.20;;
70213;SDS011;60138;55.808;37.078;2023-11-21T10:57:00;6.75;;;4.88;;
70213;SDS011;60138;55.808;37.078;2023-11-21T10:59:30;8.93;;;5.53;;
70213;SDS011;60138;55.808;37.078;2023-11-21T11:01:57;12.90;;;5.60;;
70213;SDS011;60138;55.808;37.078;2023-11-21T11:04:24;7.33;;;4.33;;
70213;SDS011;60138;55.808;37.078;2023-11-21T11:07:00;7.55;;;5.50;;
70213;SDS011;60138;55.808;37.078;2023-11-21T11:09:28;8.20;;;6.00;;
70213;SDS011;60138;55.808;37.078;2023-11-21T11:11:55;7.50;;;5.50;;
70213;SDS011;60138;55.808;37.078;2023-11-21T11:14:22;6.60;;;5.00;;
70213;SDS011;60138;55.808;37.078;2023-11-21T11:16:48;11.10;;;6.05;;
70213;SDS011;60138;55.808;37.078;2023-11-21T11:19:14;6.73;;;5.37;;
70213;SDS011;60138;55.808;37.078;2023-11-21T11:22:00;8.00;;;5.60;;
70213;SDS011;60138;55.808;37.078;2023-11-21T11:24:50;7.80;;;5.15;;
70213;SDS011;60138;55.808;37.078;2023-11-21T11:38:44;8.93;;;5.45;;
70213;SDS011;60138;55.808;37.078;2023-11-21T11:41:11;8.35;;;5.55;;
70213;SDS011;60138;55.808;37.078;2023-11-21T11:43:37;7.37;;;6.37;;
70213;SDS011;60138;55.808;37.078;2023-11-21T11:46:03;6.72;;;5.10;;
70213;SDS011;60138;55.808;37.078;2023-11-21T11:48:29;12.17;;;5.63;;
70213;SDS011;60138;55.808;37.078;2023-11-21T11:51:01;7.85;;;5.03;;
70213;SDS011;60138;55.808;37.078;2023-11-21T11:53:39;6.93;;;5.50;;
70213;SDS011;60138;55.808;37.078;2023-11-21T11:56:25;8.43;;;5.53;;
70213;SDS011;60138;55.808;37.078;2023-11-21T11:58:55;6.65;;;5.43;;
70213;SDS011;60138;55.808;37.078;2023-11-21T12:01:22;7.50;;;5.85;;
70213;SDS011;60138;55.808;37.078;2023-11-21T12:06:38;5.97;;;5.00;;
70213;SDS011;60138;55.808;37.078;2023-11-21T12:09:03;9.38;;;6.03;;
70213;SDS011;60138;55.808;37.078;2023-11-21T12:11:32;6.83;;;5.47;;
70213;SDS011;60138;55.808;37.078;2023-11-21T12:13:58;6.90;;;5.45;;
70213;SDS011;60138;55.808;37.078;2023-11-21T12:16:27;5.53;;;4.83;;
70213;SDS011;60138;55.808;37.078;2023-11-21T12:18:53;6.13;;;5.22;;
70213;SDS011;60138;55.808;37.078;2023-11-21T12:21:19;9.07;;;6.80;;
70213;SDS011;60138;55.808;37.078;2023-11-21T12:23:45;8.95;;;5.95;;
70213;SDS011;60138;55.808;37.078;2023-11-21T12:26:11;12.18;;;5.72;;
70213;SDS011;60138;55.808;37.078;2023-11-21T12:28:37;18.77;;;6.93;;
70213;SDS011;60138;55.808;37.078;2023-11-21T12:31:02;8.02;;;5.60;;
70213;SDS011;60138;55.808;37.078;2023-11-21T12:33:28;6.97;;;5.70;;
70213;SDS011;60138;55.808;37.078;2023-11-21T12:35:54;7.83;;;6.30;;
70213;SDS011;60138;55.808;37.078;2023-11-21T12:38:20;12.35;;;7.68;;
70213;SDS011;60138;55.808;37.078;2023-11-21T12:40:46;10.77;;;6.72;;
70213;SDS011;60138;55.808;37.078;2023-11-21T12:43:11;6.67;;;5.87;;
70213;SDS011;60138;55.808;37.078;2023-11-21T12:45:37;10.15;;;6.55;;
70213;SDS011;60138;55.808;37.078;2023-11-21T12:48:04;8.40;;;6.13;;
70213;SDS011;60138;55.808;37.078;2023-11-21T12:50:31;7.95;;;6.13;;
70213;SDS011;60138;55.808;37.078;2023-11-21T12:53:01;8.80;;;5.93;;
70213;SDS011;60138;55.808;37.078;2023-11-21T12:55:32;5.93;;;5.43;;
70213;SDS011;60138;55.808;37.078;2023-11-21T12:58:00;9.27;;;5.95;;
70213;SDS011;60138;55.808;37.078;2023-11-21T13:00:28;10.38;;;6.35;;
70213;SDS011;60138;55.808;37.078;2023-11-21T13:02:57;9.77;;;7.13;;
70213;SDS011;60138;55.808;37.078;2023-11-21T13:05:27;8.40;;;6.43;;
70213;SDS011;60138;55.808;37.078;2023-11-21T13:08:04;7.03;;;5.43;;
70213;SDS011;60138;55.808;37.078;2023-11-21T13:10:31;7.53;;;6.15;;
70213;SDS011;60138;55.808;37.078;2023-11-21T13:12:58;11.50;;;6.57;;
70213;SDS011;60138;55.808;37.078;2023-11-21T13:15:24;12.32;;;7.68;;
70213;SDS011;60138;55.808;37.078;2023-11-21T13:17:50;7.72;;;6.05;;
70213;SDS011;60138;55.808;37.078;2023-11-21T13:20:17;7.23;;;5.73;;
70213;SDS011;60138;55.808;37.078;2023-11-21T13:22:49;8.45;;;5.72;;
70213;SDS011;60138;55.808;37.078;2023-11-21T13:25:19;10.07;;;6.78;;
70213;SDS011;60138;55.808;37.078;2023-11-21T13:27:46;8.77;;;5.90;;
70213;SDS011;60138;55.808;37.078;2023-11-21T13:30:13;8.25;;;5.68;;
70213;SDS011;60138;55.808;37.078;2023-11-21T13:32:39;10.95;;;7.28;;
70213;SDS011;60138;55.808;37.078;2023-11-21T13:35:05;7.37;;;5.87;;
70213;SDS011;60138;55.808;37.078;2023-11-21T13:37:31;14.63;;;8.43;;
70213;SDS011;60138;55.808;37.078;2023-11-21T13:39:57;9.90;;;7.93;;
70213;SDS011;60138;55.808;37.078;2023-11-21T13:42:22;16.13;;;9.15;;
70213;SDS011;60138;55.808;37.078;2023-11-21T13:44:48;10.80;;;7.63;;
70213;SDS011;60138;55.808;37.078;2023-11-21T13:47:14;14.68;;;7.60;;
70213;SDS011;60138;55.808;37.078;2023-11-21T13:49:40;18.47;;;9.43;;
70213;SDS011;60138;55.808;37.078;2023-11-21T13:52:06;10.00;;;6.80;;
70213;SDS011;60138;55.808;37.078;2023-11-21T13:54:32;15.53;;;9.03;;
70213;SDS011;60138;55.808;37.078;2023-11-21T13:56:57;17.13;;;9.50;;
70213;SDS011;60138;55.808;37.078;2023-11-21T13:59:23;11.43;;;7.73;;
70213;SDS011;60138;55.808;37.078;2023-11-21T14:01:49;11.95;;;8.27;;
70213;SDS011;60138;55.808;37.078;2023-11-21T14:04:15;11.27;;;6.87;;
70213;SDS011;60138;55.808;37.078;2023-11-21T14:06:42;11.82;;;7.88;;
70213;SDS011;60138;55.808;37.078;2023-11-21T14:09:08;15.27;;;7.82;;
70213;SDS011;60138;55.808;37.078;2023-11-21T14:11:34;9.98;;;6.70;;
70213;SDS011;60138;55.808;37.078;2023-11-21T14:14:00;10.83;;;7.00;;
70213;SDS011;60138;55.808;37.078;2023-11-21T14:16:25;13.93;;;5.93;;
70213;SDS011;60138;55.808;37.078;2023-11-21T14:18:51;9.73;;;6.57;;
70213;SDS011;60138;55.808;37.078;2023-11-21T14:21:17;9.75;;;6.30;;
70213;SDS011;60138;55.808;37.078;2023-11-21T14:23:44;10.23;;;6.22;;
70213;SDS011;60138;55.808;37.078;2023-11-21T14:26:09;11.15;;;6.13;;
70213;SDS011;60138;55.808;37.078;2023-11-21T14:28:35;15.50;;;7.87;;
70213;SDS011;60138;55.808;37.078;2023-11-21T14:31:01;12.82;;;6.40;;
70213;SDS011;60138;55.808;37.078;2023-11-21T14:33:27;9.67;;;6.33;;
70213;SDS011;60138;55.808;37.078;2023-11-21T14:35:52;10.52;;;7.32;;
70213;SDS011;60138;55.808;37.078;2023-11-21T14:38:19;12.70;;;8.53;;
70213;SDS011;60138;55.808;37.078;2023-11-21T14:40:44;6.68;;;5.30;;